sensor_id;sensor_type;location;lat;lon;timestamp;temperature;humidity
16503;DHT22;53067;48.114;11.694;2022-08-19T00:01:56;21.00;77.80
16503;DHT22;53067;48.114;11.694;2022-08-19T00:04:30;21.00;77.80
16503;DHT22;53067;48.114;11.694;2022-08-19T00:06:55;21.00;77.60
16503;DHT22;53067;48.114;11.694;2022-08-19T00:09:23;21.00;77.50
16503;DHT22;53067;48.114;11.694;2022-08-19T00:11:52;21.00;77.50
16503;DHT22;53067;48.114;11.694;2022-08-19T00:14:22;21.00;77.50
16503;DHT22;53067;48.114;11.694;2022-08-19T00:16:50;20.90;77.60
16503;DHT22;53067;48.114;11.694;2022-08-19T00:19:39;20.90;77.30
16503;DHT22;53067;48.114;11.694;2022-08-19T00:22:07;20.90;77.20
16503;DHT22;53067;48.114;11.694;2022-08-19T00:24:35;20.80;77.60
16503;DHT22;53067;48.114;11.694;2022-08-19T00:27:05;20.80;77.40
16503;DHT22;53067;48.114;11.694;2022-08-19T00:29:32;20.70;77.30
16503;DHT22;53067;48.114;11.694;2022-08-19T00:32:00;20.70;77.50
16503;DHT22;53067;48.114;11.694;2022-08-19T00:34:27;20.60;77.70
16503;DHT22;53067;48.114;11.694;2022-08-19T00:36:56;20.70;77.60
16503;DHT22;53067;48.114;11.694;2022-08-19T00:39:24;20.60;77.50
16503;DHT22;53067;48.114;11.694;2022-08-19T00:41:51;20.60;77.50
16503;DHT22;53067;48.114;11.694;2022-08-19T00:44:26;20.60;77.20
16503;DHT22;53067;48.114;11.694;2022-08-19T00:46:52;20.60;77.50
16503;DHT22;53067;48.114;11.694;2022-08-19T00:49:26;20.60;77.60
16503;DHT22;53067;48.114;11.694;2022-08-19T00:51:57;20.60;77.50
16503;DHT22;53067;48.114;11.694;2022-08-19T00:54:24;20.60;77.90
16503;DHT22;53067;48.114;11.694;2022-08-19T00:56:53;20.60;77.60
16503;DHT22;53067;48.114;11.694;2022-08-19T00:59:21;20.60;77.50
16503;DHT22;53067;48.114;11.694;2022-08-19T01:01:49;20.60;77.50
16503;DHT22;53067;48.114;11.694;2022-08-19T01:04:16;20.60;77.50
16503;DHT22;53067;48.114;11.694;2022-08-19T01:06:44;20.60;77.60
16503;DHT22;53067;48.114;11.694;2022-08-19T01:09:11;20.60;77.70
16503;DHT22;53067;48.114;11.694;2022-08-19T01:11:41;20.60;77.60
16503;DHT22;53067;48.114;11.694;2022-08-19T01:14:10;20.50;77.50
16503;DHT22;53067;48.114;11.694;2022-08-19T01:16:40;20.50;77.80
16503;DHT22;53067;48.114;11.694;2022-08-19T01:19:12;20.50;78.00
16503;DHT22;53067;48.114;11.694;2022-08-19T01:21:42;20.50;78.10
16503;DHT22;53067;48.114;11.694;2022-08-19T01:24:09;20.50;78.00
16503;DHT22;53067;48.114;11.694;2022-08-19T01:26:42;20.50;78.10
16503;DHT22;53067;48.114;11.694;2022-08-19T01:29:11;20.50;78.10
16503;DHT22;53067;48.114;11.694;2022-08-19T01:31:39;20.50;78.20
16503;DHT22;53067;48.114;11.694;2022-08-19T01:34:07;20.50;77.90
16503;DHT22;53067;48.114;11.694;2022-08-19T01:39:28;20.60;78.20
16503;DHT22;53067;48.114;11.694;2022-08-19T01:41:55;20.60;78.20
16503;DHT22;53067;48.114;11.694;2022-08-19T01:44:23;20.60;78.00
16503;DHT22;53067;48.114;11.694;2022-08-19T01:46:51;20.70;77.70
16503;DHT22;53067;48.114;11.694;2022-08-19T01:49:21;20.70;77.50
16503;DHT22;53067;48.114;11.694;2022-08-19T01:51:49;20.70;77.20
16503;DHT22;53067;48.114;11.694;2022-08-19T01:54:19;20.70;77.20
16503;DHT22;53067;48.114;11.694;2022-08-19T01:56:47;20.70;77.10
16503;DHT22;53067;48.114;11.694;2022-08-19T01:59:17;20.80;77.00
16503;DHT22;53067;48.114;11.694;2022-08-19T02:01:46;20.80;77.60
16503;DHT22;53067;48.114;11.694;2022-08-19T02:04:14;20.80;76.70
16503;DHT22;53067;48.114;11.694;2022-08-19T02:06:42;20.80;76.30
16503;DHT22;53067;48.114;11.694;2022-08-19T02:09:10;20.80;76.40
16503;DHT22;53067;48.114;11.694;2022-08-19T02:11:37;20.90;76.30
16503;DHT22;53067;48.114;11.694;2022-08-19T02:14:06;20.80;76.30
16503;DHT22;53067;48.114;11.694;2022-08-19T02:16:35;20.90;76.10
16503;DHT22;53067;48.114;11.694;2022-08-19T02:19:03;20.90;75.60
16503;DHT22;53067;48.114;11.694;2022-08-19T02:21:31;20.80;75.60
16503;DHT22;53067;48.114;11.694;2022-08-19T02:23:59;20.80;75.90
16503;DHT22;53067;48.114;11.694;2022-08-19T02:26:27;20.80;75.70
16503;DHT22;53067;48.114;11.694;2022-08-19T02:28:55;20.80;75.70
16503;DHT22;53067;48.114;11.694;2022-08-19T02:31:24;20.90;75.40
16503;DHT22;53067;48.114;11.694;2022-08-19T02:33:52;20.80;75.30
16503;DHT22;53067;48.114;11.694;2022-08-19T02:36:20;20.90;75.30
16503;DHT22;53067;48.114;11.694;2022-08-19T02:38:48;20.80;75.20
16503;DHT22;53067;48.114;11.694;2022-08-19T02:41:21;20.80;75.40
16503;DHT22;53067;48.114;11.694;2022-08-19T02:43:49;20.70;75.40
16503;DHT22;53067;48.114;11.694;2022-08-19T02:46:19;20.60;75.30
16503;DHT22;53067;48.114;11.694;2022-08-19T02:48:53;20.70;75.60
16503;DHT22;53067;48.114;11.694;2022-08-19T02:51:23;20.60;75.60
16503;DHT22;53067;48.114;11.694;2022-08-19T02:53:51;20.70;75.50
16503;DHT22;53067;48.114;11.694;2022-08-19T02:56:20;20.60;75.50
16503;DHT22;53067;48.114;11.694;2022-08-19T02:58:48;20.60;75.70
16503;DHT22;53067;48.114;11.694;2022-08-19T03:01:30;20.60;75.80
16503;DHT22;53067;48.114;11.694;2022-08-19T03:04:01;20.60;75.80
16503;DHT22;53067;48.114;11.694;2022-08-19T03:06:29;20.60;75.90
16503;DHT22;53067;48.114;11.694;2022-08-19T03:08:57;20.60;75.90
16503;DHT22;53067;48.114;11.694;2022-08-19T03:11:27;20.60;75.90
16503;DHT22;53067;48.114;11.694;2022-08-19T03:13:57;20.50;75.90
16503;DHT22;53067;48.114;11.694;2022-08-19T03:16:27;20.50;75.90
16503;DHT22;53067;48.114;11.694;2022-08-19T03:18:57;20.50;76.20
16503;DHT22;53067;48.114;11.694;2022-08-19T03:24:16;20.40;76.50
16503;DHT22;53067;48.114;11.694;2022-08-19T03:26:47;20.40;76.70
16503;DHT22;53067;48.114;11.694;2022-08-19T03:29:15;20.40;76.70
16503;DHT22;53067;48.114;11.694;2022-08-19T03:31:44;20.40;76.80
16503;DHT22;53067;48.114;11.694;2022-08-19T03:34:22;20.40;76.90
16503;DHT22;53067;48.114;11.694;2022-08-19T03:36:49;20.40;76.80
16503;DHT22;53067;48.114;11.694;2022-08-19T03:39:17;20.40;76.60
16503;DHT22;53067;48.114;11.694;2022-08-19T03:41:45;20.40;76.70
16503;DHT22;53067;48.114;11.694;2022-08-19T03:44:15;20.40;76.60
16503;DHT22;53067;48.114;11.694;2022-08-19T03:46:45;20.50;76.60
16503;DHT22;53067;48.114;11.694;2022-08-19T03:49:12;20.40;76.60
16503;DHT22;53067;48.114;11.694;2022-08-19T03:51:41;20.50;76.50
16503;DHT22;53067;48.114;11.694;2022-08-19T03:54:11;20.50;76.10
16503;DHT22;53067;48.114;11.694;2022-08-19T03:56:40;20.50;76.20
16503;DHT22;53067;48.114;11.694;2022-08-19T03:59:11;20.50;76.30
16503;DHT22;53067;48.114;11.694;2022-08-19T04:01:40;20.60;76.40
16503;DHT22;53067;48.114;11.694;2022-08-19T04:04:07;20.60;76.30
16503;DHT22;53067;48.114;11.694;2022-08-19T04:06:37;20.70;76.80
16503;DHT22;53067;48.114;11.694;2022-08-19T04:09:07;20.70;75.90
16503;DHT22;53067;48.114;11.694;2022-08-19T04:11:38;20.70;76.30
16503;DHT22;53067;48.114;11.694;2022-08-19T04:14:11;20.70;75.70
16503;DHT22;53067;48.114;11.694;2022-08-19T04:16:39;20.70;75.90
16503;DHT22;53067;48.114;11.694;2022-08-19T04:19:06;20.80;75.70
16503;DHT22;53067;48.114;11.694;2022-08-19T04:21:34;20.80;75.70
16503;DHT22;53067;48.114;11.694;2022-08-19T04:24:03;20.80;75.60
16503;DHT22;53067;48.114;11.694;2022-08-19T04:26:33;20.80;75.50
16503;DHT22;53067;48.114;11.694;2022-08-19T04:29:08;20.90;75.40
16503;DHT22;53067;48.114;11.694;2022-08-19T04:31:32;20.90;75.20
16503;DHT22;53067;48.114;11.694;2022-08-19T04:34:04;20.90;75.50
16503;DHT22;53067;48.114;11.694;2022-08-19T04:39:24;21.00;75.20
16503;DHT22;53067;48.114;11.694;2022-08-19T04:41:53;21.00;75.10
16503;DHT22;53067;48.114;11.694;2022-08-19T04:44:38;21.00;75.00
16503;DHT22;53067;48.114;11.694;2022-08-19T04:47:06;21.00;75.00
16503;DHT22;53067;48.114;11.694;2022-08-19T04:49:33;21.00;75.00
16503;DHT22;53067;48.114;11.694;2022-08-19T04:52:02;21.00;74.80
16503;DHT22;53067;48.114;11.694;2022-08-19T04:54:29;21.00;74.90
16503;DHT22;53067;48.114;11.694;2022-08-19T04:56:57;21.10;75.00
16503;DHT22;53067;48.114;11.694;2022-08-19T04:59:24;21.00;74.80
16503;DHT22;53067;48.114;11.694;2022-08-19T05:01:52;21.00;74.70
16503;DHT22;53067;48.114;11.694;2022-08-19T05:04:20;21.00;74.80
16503;DHT22;53067;48.114;11.694;2022-08-19T05:06:48;21.00;74.80
16503;DHT22;53067;48.114;11.694;2022-08-19T05:09:17;21.00;74.90
16503;DHT22;53067;48.114;11.694;2022-08-19T05:11:45;21.00;74.80
16503;DHT22;53067;48.114;11.694;2022-08-19T05:14:14;21.00;75.00
16503;DHT22;53067;48.114;11.694;2022-08-19T05:16:42;21.00;74.90
16503;DHT22;53067;48.114;11.694;2022-08-19T05:19:10;21.00;75.10
16503;DHT22;53067;48.114;11.694;2022-08-19T05:21:55;21.00;75.80
16503;DHT22;53067;48.114;11.694;2022-08-19T05:27:29;21.00;74.90
16503;DHT22;53067;48.114;11.694;2022-08-19T05:29:57;21.00;75.20
16503;DHT22;53067;48.114;11.694;2022-08-19T05:32:24;21.00;74.50
16503;DHT22;53067;48.114;11.694;2022-08-19T05:34:52;21.00;74.00
16503;DHT22;53067;48.114;11.694;2022-08-19T05:37:19;20.90;74.20
16503;DHT22;53067;48.114;11.694;2022-08-19T05:39:48;20.90;74.40
16503;DHT22;53067;48.114;11.694;2022-08-19T05:42:16;20.90;74.60
16503;DHT22;53067;48.114;11.694;2022-08-19T05:44:45;21.00;74.70
16503;DHT22;53067;48.114;11.694;2022-08-19T05:47:15;21.00;74.60
16503;DHT22;53067;48.114;11.694;2022-08-19T05:49:43;21.00;74.00
16503;DHT22;53067;48.114;11.694;2022-08-19T05:52:13;21.00;74.00
16503;DHT22;53067;48.114;11.694;2022-08-19T05:54:42;20.90;74.30
16503;DHT22;53067;48.114;11.694;2022-08-19T05:57:11;20.90;74.70
16503;DHT22;53067;48.114;11.694;2022-08-19T05:59:39;20.80;74.80
16503;DHT22;53067;48.114;11.694;2022-08-19T06:02:06;20.90;74.90
16503;DHT22;53067;48.114;11.694;2022-08-19T06:04:34;20.90;75.00
16503;DHT22;53067;48.114;11.694;2022-08-19T06:07:02;20.90;74.90
16503;DHT22;53067;48.114;11.694;2022-08-19T06:09:30;20.90;75.30
16503;DHT22;53067;48.114;11.694;2022-08-19T06:11:59;21.00;75.50
16503;DHT22;53067;48.114;11.694;2022-08-19T06:14:30;21.00;75.20
16503;DHT22;53067;48.114;11.694;2022-08-19T06:16:59;21.00;74.70
16503;DHT22;53067;48.114;11.694;2022-08-19T06:19:29;21.00;75.90
16503;DHT22;53067;48.114;11.694;2022-08-19T06:21:58;21.10;75.60
16503;DHT22;53067;48.114;11.694;2022-08-19T06:24:28;21.10;75.30
16503;DHT22;53067;48.114;11.694;2022-08-19T06:26:58;21.10;75.60
16503;DHT22;53067;48.114;11.694;2022-08-19T06:29:27;21.10;75.70
16503;DHT22;53067;48.114;11.694;2022-08-19T06:31:58;21.10;76.20
16503;DHT22;53067;48.114;11.694;2022-08-19T06:34:27;21.10;76.30
16503;DHT22;53067;48.114;11.694;2022-08-19T06:36:57;21.10;76.20
16503;DHT22;53067;48.114;11.694;2022-08-19T06:39:28;21.00;76.10
16503;DHT22;53067;48.114;11.694;2022-08-19T06:41:59;21.00;76.60
16503;DHT22;53067;48.114;11.694;2022-08-19T06:44:29;21.00;77.00
16503;DHT22;53067;48.114;11.694;2022-08-19T06:46:59;21.00;76.90
16503;DHT22;53067;48.114;11.694;2022-08-19T06:49:28;21.10;77.10
16503;DHT22;53067;48.114;11.694;2022-08-19T06:51:58;21.10;77.20
16503;DHT22;53067;48.114;11.694;2022-08-19T06:54:26;21.20;77.10
16503;DHT22;53067;48.114;11.694;2022-08-19T06:56:57;21.20;77.30
16503;DHT22;53067;48.114;11.694;2022-08-19T06:59:33;21.20;77.30
16503;DHT22;53067;48.114;11.694;2022-08-19T07:02:04;21.20;77.40
16503;DHT22;53067;48.114;11.694;2022-08-19T07:04:34;21.20;77.00
16503;DHT22;53067;48.114;11.694;2022-08-19T07:07:05;21.10;76.90
16503;DHT22;53067;48.114;11.694;2022-08-19T07:09:35;21.10;77.00
16503;DHT22;53067;48.114;11.694;2022-08-19T07:12:05;21.20;77.70
16503;DHT22;53067;48.114;11.694;2022-08-19T07:14:33;21.20;76.80
16503;DHT22;53067;48.114;11.694;2022-08-19T07:17:07;21.20;76.20
16503;DHT22;53067;48.114;11.694;2022-08-19T07:19:35;21.10;77.00
16503;DHT22;53067;48.114;11.694;2022-08-19T07:22:05;21.10;77.50
16503;DHT22;53067;48.114;11.694;2022-08-19T07:24:34;21.20;77.20
16503;DHT22;53067;48.114;11.694;2022-08-19T07:27:04;21.30;77.10
16503;DHT22;53067;48.114;11.694;2022-08-19T07:29:34;21.30;76.80
16503;DHT22;53067;48.114;11.694;2022-08-19T07:32:04;21.30;77.30
16503;DHT22;53067;48.114;11.694;2022-08-19T07:34:34;21.40;76.90
16503;DHT22;53067;48.114;11.694;2022-08-19T07:37:05;21.50;76.90
16503;DHT22;53067;48.114;11.694;2022-08-19T07:39:35;21.60;77.80
16503;DHT22;53067;48.114;11.694;2022-08-19T07:44:51;21.70;76.00
16503;DHT22;53067;48.114;11.694;2022-08-19T07:47:18;21.80;76.30
16503;DHT22;53067;48.114;11.694;2022-08-19T07:49:46;21.80;75.60
16503;DHT22;53067;48.114;11.694;2022-08-19T07:52:15;21.90;75.80
16503;DHT22;53067;48.114;11.694;2022-08-19T07:54:43;21.90;74.60
16503;DHT22;53067;48.114;11.694;2022-08-19T07:57:10;21.80;74.90
16503;DHT22;53067;48.114;11.694;2022-08-19T07:59:38;21.90;75.10
16503;DHT22;53067;48.114;11.694;2022-08-19T08:02:07;21.90;75.20
16503;DHT22;53067;48.114;11.694;2022-08-19T08:04:35;22.00;75.60
16503;DHT22;53067;48.114;11.694;2022-08-19T08:07:20;22.10;75.50
16503;DHT22;53067;48.114;11.694;2022-08-19T08:12:54;22.00;74.00
16503;DHT22;53067;48.114;11.694;2022-08-19T08:15:22;22.00;74.20
16503;DHT22;53067;48.114;11.694;2022-08-19T08:17:50;22.00;74.40
16503;DHT22;53067;48.114;11.694;2022-08-19T08:20:17;21.90;74.40
16503;DHT22;53067;48.114;11.694;2022-08-19T08:22:46;22.00;74.90
16503;DHT22;53067;48.114;11.694;2022-08-19T08:25:28;21.90;75.10
16503;DHT22;53067;48.114;11.694;2022-08-19T08:27:56;21.90;75.60
16503;DHT22;53067;48.114;11.694;2022-08-19T08:30:26;21.90;75.50
16503;DHT22;53067;48.114;11.694;2022-08-19T08:32:55;21.90;75.70
16503;DHT22;53067;48.114;11.694;2022-08-19T08:35:23;21.80;75.60
16503;DHT22;53067;48.114;11.694;2022-08-19T08:37:53;21.80;75.90
16503;DHT22;53067;48.114;11.694;2022-08-19T08:43:27;21.80;76.50
16503;DHT22;53067;48.114;11.694;2022-08-19T08:46:03;21.80;76.70
16503;DHT22;53067;48.114;11.694;2022-08-19T08:49:02;21.70;76.70
16503;DHT22;53067;48.114;11.694;2022-08-19T08:54:06;21.70;77.60
16503;DHT22;53067;48.114;11.694;2022-08-19T08:56:33;21.60;77.60
16503;DHT22;53067;48.114;11.694;2022-08-19T09:01:50;21.60;77.80
16503;DHT22;53067;48.114;11.694;2022-08-19T09:04:17;21.60;77.80
16503;DHT22;53067;48.114;11.694;2022-08-19T09:09:34;21.60;78.10
16503;DHT22;53067;48.114;11.694;2022-08-19T09:15:10;21.50;77.80
16503;DHT22;53067;48.114;11.694;2022-08-19T09:17:35;21.50;78.80
16503;DHT22;53067;48.114;11.694;2022-08-19T09:20:19;21.50;78.20
16503;DHT22;53067;48.114;11.694;2022-08-19T09:22:46;21.50;78.50
16503;DHT22;53067;48.114;11.694;2022-08-19T09:25:18;21.50;78.70
16503;DHT22;53067;48.114;11.694;2022-08-19T09:27:48;21.50;78.10
16503;DHT22;53067;48.114;11.694;2022-08-19T09:30:21;21.50;78.40
16503;DHT22;53067;48.114;11.694;2022-08-19T09:32:50;21.50;78.50
16503;DHT22;53067;48.114;11.694;2022-08-19T09:35:23;21.50;78.10
16503;DHT22;53067;48.114;11.694;2022-08-19T09:38:10;21.60;77.90
16503;DHT22;53067;48.114;11.694;2022-08-19T09:40:38;21.60;77.90
16503;DHT22;53067;48.114;11.694;2022-08-19T09:43:05;21.60;77.80
16503;DHT22;53067;48.114;11.694;2022-08-19T09:45:34;21.60;77.80
16503;DHT22;53067;48.114;11.694;2022-08-19T09:48:02;21.60;78.10
16503;DHT22;53067;48.114;11.694;2022-08-19T09:50:29;21.70;79.40
16503;DHT22;53067;48.114;11.694;2022-08-19T09:52:58;21.80;78.30
16503;DHT22;53067;48.114;11.694;2022-08-19T09:55:26;22.00;77.50
16503;DHT22;53067;48.114;11.694;2022-08-19T09:57:54;22.10;77.50
16503;DHT22;53067;48.114;11.694;2022-08-19T10:00:21;22.20;76.30
16503;DHT22;53067;48.114;11.694;2022-08-19T10:02:49;22.20;75.40
16503;DHT22;53067;48.114;11.694;2022-08-19T10:05:16;22.20;75.20
16503;DHT22;53067;48.114;11.694;2022-08-19T10:10:53;22.20;75.70
16503;DHT22;53067;48.114;11.694;2022-08-19T10:13:24;22.20;75.70
16503;DHT22;53067;48.114;11.694;2022-08-19T10:15:54;22.30;75.50
16503;DHT22;53067;48.114;11.694;2022-08-19T10:21:14;22.30;76.70
16503;DHT22;53067;48.114;11.694;2022-08-19T10:23:44;22.40;76.00
16503;DHT22;53067;48.114;11.694;2022-08-19T10:26:15;22.40;75.80
16503;DHT22;53067;48.114;11.694;2022-08-19T10:28:43;22.50;76.00
16503;DHT22;53067;48.114;11.694;2022-08-19T10:31:14;22.60;74.30
16503;DHT22;53067;48.114;11.694;2022-08-19T10:33:42;22.80;74.00
16503;DHT22;53067;48.114;11.694;2022-08-19T10:36:12;22.90;73.50
16503;DHT22;53067;48.114;11.694;2022-08-19T10:38:50;23.10;72.10
16503;DHT22;53067;48.114;11.694;2022-08-19T10:41:19;23.20;73.20
16503;DHT22;53067;48.114;11.694;2022-08-19T10:43:50;23.40;71.10
16503;DHT22;53067;48.114;11.694;2022-08-19T10:46:18;23.50;71.80
16503;DHT22;53067;48.114;11.694;2022-08-19T10:48:46;23.60;70.10
16503;DHT22;53067;48.114;11.694;2022-08-19T10:51:14;23.50;70.10
16503;DHT22;53067;48.114;11.694;2022-08-19T10:54:00;23.50;69.70
16503;DHT22;53067;48.114;11.694;2022-08-19T10:56:28;23.50;70.00
16503;DHT22;53067;48.114;11.694;2022-08-19T10:59:15;23.40;68.80
16503;DHT22;53067;48.114;11.694;2022-08-19T11:01:44;23.30;68.40
16503;DHT22;53067;48.114;11.694;2022-08-19T11:04:12;23.30;69.10
16503;DHT22;53067;48.114;11.694;2022-08-19T11:06:42;23.30;68.80
16503;DHT22;53067;48.114;11.694;2022-08-19T11:09:11;23.20;68.90
16503;DHT22;53067;48.114;11.694;2022-08-19T11:11:39;23.30;68.60
16503;DHT22;53067;48.114;11.694;2022-08-19T11:14:14;23.40;67.60
16503;DHT22;53067;48.114;11.694;2022-08-19T11:16:38;23.50;67.90
16503;DHT22;53067;48.114;11.694;2022-08-19T11:19:07;23.60;68.20
16503;DHT22;53067;48.114;11.694;2022-08-19T11:21:38;23.80;67.60
16503;DHT22;53067;48.114;11.694;2022-08-19T11:24:13;23.90;66.60
16503;DHT22;53067;48.114;11.694;2022-08-19T11:26:37;23.90;66.70
16503;DHT22;53067;48.114;11.694;2022-08-19T11:29:06;23.90;66.70
16503;DHT22;53067;48.114;11.694;2022-08-19T11:31:36;23.90;66.50
16503;DHT22;53067;48.114;11.694;2022-08-19T11:34:07;23.90;66.70
16503;DHT22;53067;48.114;11.694;2022-08-19T11:36:39;23.90;67.30
16503;DHT22;53067;48.114;11.694;2022-08-19T11:39:09;23.90;67.40
16503;DHT22;53067;48.114;11.694;2022-08-19T11:41:36;23.90;67.10
16503;DHT22;53067;48.114;11.694;2022-08-19T11:44:04;23.80;67.60
16503;DHT22;53067;48.114;11.694;2022-08-19T11:46:35;23.90;67.30
16503;DHT22;53067;48.114;11.694;2022-08-19T11:49:04;24.10;67.80
16503;DHT22;53067;48.114;11.694;2022-08-19T11:51:33;24.40;65.80
16503;DHT22;53067;48.114;11.694;2022-08-19T11:54:03;24.50;64.60
16503;DHT22;53067;48.114;11.694;2022-08-19T11:56:31;24.60;64.70
16503;DHT22;53067;48.114;11.694;2022-08-19T11:59:01;24.60;64.40
16503;DHT22;53067;48.114;11.694;2022-08-19T12:01:30;24.60;63.20
16503;DHT22;53067;48.114;11.694;2022-08-19T12:03:58;24.50;63.50
16503;DHT22;53067;48.114;11.694;2022-08-19T12:06:27;24.40;63.60
16503;DHT22;53067;48.114;11.694;2022-08-19T12:08:57;24.20;64.20
16503;DHT22;53067;48.114;11.694;2022-08-19T12:11:25;23.90;65.40
16503;DHT22;53067;48.114;11.694;2022-08-19T12:13:53;23.80;64.80
16503;DHT22;53067;48.114;11.694;2022-08-19T12:16:24;23.80;63.70
16503;DHT22;53067;48.114;11.694;2022-08-19T12:18:53;23.60;64.20
16503;DHT22;53067;48.114;11.694;2022-08-19T12:21:24;23.60;64.30
16503;DHT22;53067;48.114;11.694;2022-08-19T12:23:54;23.40;65.20
16503;DHT22;53067;48.114;11.694;2022-08-19T12:26:22;23.30;66.00
16503;DHT22;53067;48.114;11.694;2022-08-19T12:28:50;23.20;66.70
16503;DHT22;53067;48.114;11.694;2022-08-19T12:31:17;23.30;67.10
16503;DHT22;53067;48.114;11.694;2022-08-19T12:33:46;23.40;66.90
16503;DHT22;53067;48.114;11.694;2022-08-19T12:36:15;23.40;66.90
16503;DHT22;53067;48.114;11.694;2022-08-19T12:38:44;23.50;66.10
16503;DHT22;53067;48.114;11.694;2022-08-19T12:41:15;23.50;65.60
16503;DHT22;53067;48.114;11.694;2022-08-19T12:43:45;23.50;65.20
16503;DHT22;53067;48.114;11.694;2022-08-19T12:46:14;23.40;65.70
16503;DHT22;53067;48.114;11.694;2022-08-19T12:48:42;23.40;65.20
16503;DHT22;53067;48.114;11.694;2022-08-19T12:51:13;23.30;65.80
16503;DHT22;53067;48.114;11.694;2022-08-19T12:53:42;23.20;66.00
16503;DHT22;53067;48.114;11.694;2022-08-19T12:56:11;23.20;66.50
16503;DHT22;53067;48.114;11.694;2022-08-19T12:58:41;23.20;65.80
16503;DHT22;53067;48.114;11.694;2022-08-19T13:01:11;23.20;65.20
16503;DHT22;53067;48.114;11.694;2022-08-19T13:03:39;23.20;65.30
16503;DHT22;53067;48.114;11.694;2022-08-19T13:06:08;23.20;65.40
16503;DHT22;53067;48.114;11.694;2022-08-19T13:08:37;23.20;65.50
16503;DHT22;53067;48.114;11.694;2022-08-19T13:11:10;23.20;65.50
16503;DHT22;53067;48.114;11.694;2022-08-19T13:13:40;23.20;65.20
16503;DHT22;53067;48.114;11.694;2022-08-19T13:16:09;23.30;65.60
16503;DHT22;53067;48.114;11.694;2022-08-19T13:18:38;23.30;65.00
16503;DHT22;53067;48.114;11.694;2022-08-19T13:21:09;23.40;64.90
16503;DHT22;53067;48.114;11.694;2022-08-19T13:23:39;23.70;63.60
16503;DHT22;53067;48.114;11.694;2022-08-19T13:28:57;24.10;62.10
16503;DHT22;53067;48.114;11.694;2022-08-19T13:31:43;24.20;61.50
16503;DHT22;53067;48.114;11.694;2022-08-19T13:34:32;24.50;60.60
16503;DHT22;53067;48.114;11.694;2022-08-19T13:37:01;24.90;58.70
16503;DHT22;53067;48.114;11.694;2022-08-19T13:39:31;25.30;59.50
16503;DHT22;53067;48.114;11.694;2022-08-19T13:42:00;25.50;57.90
16503;DHT22;53067;48.114;11.694;2022-08-19T13:44:29;25.60;56.40
16503;DHT22;53067;48.114;11.694;2022-08-19T13:47:04;25.50;55.50
16503;DHT22;53067;48.114;11.694;2022-08-19T13:49:52;25.50;56.20
16503;DHT22;53067;48.114;11.694;2022-08-19T13:52:20;25.40;56.60
16503;DHT22;53067;48.114;11.694;2022-08-19T13:54:47;25.50;57.00
16503;DHT22;53067;48.114;11.694;2022-08-19T13:57:15;25.50;57.20
16503;DHT22;53067;48.114;11.694;2022-08-19T13:59:42;25.70;57.00
16503;DHT22;53067;48.114;11.694;2022-08-19T14:02:10;25.90;56.80
16503;DHT22;53067;48.114;11.694;2022-08-19T14:04:38;26.00;57.50
16503;DHT22;53067;48.114;11.694;2022-08-19T14:07:05;26.10;57.20
16503;DHT22;53067;48.114;11.694;2022-08-19T14:09:33;26.10;57.10
16503;DHT22;53067;48.114;11.694;2022-08-19T14:12:00;26.20;57.30
16503;DHT22;53067;48.114;11.694;2022-08-19T14:14:28;26.20;56.90
16503;DHT22;53067;48.114;11.694;2022-08-19T14:16:55;26.10;56.90
16503;DHT22;53067;48.114;11.694;2022-08-19T14:19:23;25.90;57.20
16503;DHT22;53067;48.114;11.694;2022-08-19T14:21:50;25.70;57.50
16503;DHT22;53067;48.114;11.694;2022-08-19T14:24:18;25.50;58.10
16503;DHT22;53067;48.114;11.694;2022-08-19T14:26:45;25.40;58.20
16503;DHT22;53067;48.114;11.694;2022-08-19T14:29:13;25.30;58.10
16503;DHT22;53067;48.114;11.694;2022-08-19T14:31:40;25.30;58.50
16503;DHT22;53067;48.114;11.694;2022-08-19T14:34:10;25.20;58.60
16503;DHT22;53067;48.114;11.694;2022-08-19T14:36:39;25.20;59.40
16503;DHT22;53067;48.114;11.694;2022-08-19T14:39:08;25.20;58.80
16503;DHT22;53067;48.114;11.694;2022-08-19T14:41:36;25.10;59.10
16503;DHT22;53067;48.114;11.694;2022-08-19T14:44:05;24.90;59.10
16503;DHT22;53067;48.114;11.694;2022-08-19T14:46:32;24.70;59.40
16503;DHT22;53067;48.114;11.694;2022-08-19T14:49:00;24.60;60.70
16503;DHT22;53067;48.114;11.694;2022-08-19T14:51:28;24.70;60.90
16503;DHT22;53067;48.114;11.694;2022-08-19T14:53:56;24.70;60.20
16503;DHT22;53067;48.114;11.694;2022-08-19T14:56:26;24.70;59.90
16503;DHT22;53067;48.114;11.694;2022-08-19T14:58:54;24.70;60.30
16503;DHT22;53067;48.114;11.694;2022-08-19T15:01:24;24.50;60.50
16503;DHT22;53067;48.114;11.694;2022-08-19T15:03:53;24.40;61.10
16503;DHT22;53067;48.114;11.694;2022-08-19T15:06:23;24.30;61.40
16503;DHT22;53067;48.114;11.694;2022-08-19T15:09:10;24.30;61.00
16503;DHT22;53067;48.114;11.694;2022-08-19T15:11:38;24.40;61.10
16503;DHT22;53067;48.114;11.694;2022-08-19T15:14:05;24.20;61.00
16503;DHT22;53067;48.114;11.694;2022-08-19T15:16:33;24.00;62.00
16503;DHT22;53067;48.114;11.694;2022-08-19T15:19:00;23.80;62.90
16503;DHT22;53067;48.114;11.694;2022-08-19T15:21:29;23.70;63.40
16503;DHT22;53067;48.114;11.694;2022-08-19T15:23:58;23.70;63.70
16503;DHT22;53067;48.114;11.694;2022-08-19T15:26:27;23.70;63.10
16503;DHT22;53067;48.114;11.694;2022-08-19T15:28:57;23.70;63.30
16503;DHT22;53067;48.114;11.694;2022-08-19T15:31:25;23.70;63.10
16503;DHT22;53067;48.114;11.694;2022-08-19T15:33:55;23.70;62.70
16503;DHT22;53067;48.114;11.694;2022-08-19T15:36:23;23.60;62.60
16503;DHT22;53067;48.114;11.694;2022-08-19T15:38:52;23.60;62.80
16503;DHT22;53067;48.114;11.694;2022-08-19T15:41:29;23.60;62.60
16503;DHT22;53067;48.114;11.694;2022-08-19T15:43:59;23.50;62.80
16503;DHT22;53067;48.114;11.694;2022-08-19T15:46:30;23.50;63.20
16503;DHT22;53067;48.114;11.694;2022-08-19T15:48:59;23.40;63.60
16503;DHT22;53067;48.114;11.694;2022-08-19T15:51:29;23.40;64.00
16503;DHT22;53067;48.114;11.694;2022-08-19T15:53:58;23.40;64.60
16503;DHT22;53067;48.114;11.694;2022-08-19T15:56:26;23.30;64.40
16503;DHT22;53067;48.114;11.694;2022-08-19T15:58:55;23.20;65.40
16503;DHT22;53067;48.114;11.694;2022-08-19T16:01:41;23.00;67.50
16503;DHT22;53067;48.114;11.694;2022-08-19T16:04:27;22.80;70.10
16503;DHT22;53067;48.114;11.694;2022-08-19T16:07:12;22.80;72.10
16503;DHT22;53067;48.114;11.694;2022-08-19T16:09:40;22.70;72.40
16503;DHT22;53067;48.114;11.694;2022-08-19T16:12:07;22.70;73.10